Portland, OR (97233)

9:49 AM PST on December 18, 2014 (GMT -0800)
Muldokken's house | Change Station
CLOSE
Current Station
Personal Weather Station
Location: Portland, OR
Elevation: 279 ft
Nearby Weather Stations
Active Advisory: Special Statement

Elev 279 ft 45.51 °N, 122.51 °W | Updated 7 minutes ago

Overcast
Overcast
43.5 °F
Feels Like 42 °F
N
3.2
Wind Variable Wind from ESE

Today
High -- | Low -- °F
--% Chance of Precip.
Yesterday
High -- | Low -- °F
Precip. -- in
7:45 AM 4:28 PM
Waning Crescent, 13% visible
Pressure 29.97 in
Visibility 10.0 miles
Clouds Mostly Cloudy 3800 ft
Overcast 4500 ft
Windchill 42 °F
Dew Point 42 °F
Humidity 94%
Rainfall 0.00 in
Snow Depth Not available.
UV 0 out of 12
Pollen 1.30 out of 12
Air Quality Not available.
Flu Activity Not available.
METAR KTTD 181653Z 09014KT 10SM BKN038 OVC045 07/03 A2997 RMK AO2 SLP148 T00670028

More Conditions Fewer Conditions

Pressure 29.97 in
Visibility 10.0 miles
Clouds Mostly Cloudy 3800 ft
Overcast 4500 ft
Windchill 42 °F
Dew Point 42 °F
Humidity 94%
Rainfall 0.00 in
Snow Depth Not available.
UV 0 out of 12
Pollen 1.30 out of 12
Air Quality Not available.
Flu Activity Not available.
METAR KTTD 181653Z 09014KT 10SM BKN038 OVC045 07/03 A2997 RMK AO2 SLP148 T00670028

More Conditions Fewer Conditions

10-Day Weather Forecast

Almanac

Astronomy

Dec. 18, 2014 Rise Set
Actual Time
Civil Twilight
Nautical Twilight
Astronomical Twilight
Moon
Length of Visible Light
Length of Day
Tomorrow will be .
, % of the Moon is Illuminated

Today's Extremes

State Highs State Lows

Community

WunderPhotos

Upload Photos

1,778,969 photos uploaded!

WunderBlogs® & News

Nearby

Air Quality

  Air Quality AQ Index Pollutant
Not available.

Snow Depth

Station Depth Elevation

Earthquake Activity

City Distance Mag. Time & Date
Minimum magnitude displayed is 2.5.

Coastal Water Temperatures

Place Temperature

Nearby Weather Stations